sensor_id;sensor_type;location;lat;lon;timestamp;pressure;altitude;pressure_sealevel;temperature;humidity
31585;BME280;18191;51.288;12.390;2023-04-27T00:03:25;48911.38;;;-144.47;78.71
31585;BME280;18191;51.288;12.390;2023-04-27T00:08:15;48917.34;;;-144.47;78.73
31585;BME280;18191;51.288;12.390;2023-04-27T00:13:05;48949.16;;;-144.47;78.33
31585;BME280;18191;51.288;12.390;2023-04-27T00:17:55;48915.34;;;-144.47;78.47
31585;BME280;18191;51.288;12.390;2023-04-27T00:22:46;48941.19;;;-144.47;79.60
31585;BME280;18191;51.288;12.390;2023-04-27T00:27:36;48941.19;;;-144.47;79.30
31585;BME280;18191;51.288;12.390;2023-04-27T00:32:26;48913.34;;;-144.47;80.41
31585;BME280;18191;51.288;12.390;2023-04-27T00:37:17;48905.41;;;-144.47;80.28
31585;BME280;18191;51.288;12.390;2023-04-27T00:42:07;48965.06;;;-144.47;81.09
31585;BME280;18191;51.288;12.390;2023-04-27T00:47:02;48937.22;;;-144.47;80.97
31585;BME280;18191;51.288;12.390;2023-04-27T00:51:52;48913.34;;;-144.47;80.18
31585;BME280;18191;51.288;12.390;2023-04-27T00:56:42;48893.47;;;-144.47;79.93
31585;BME280;18191;51.288;12.390;2023-04-27T01:01:33;48953.13;;;-144.47;79.96
31585;BME280;18191;51.288;12.390;2023-04-27T01:06:23;48921.31;;;-144.47;79.70
31585;BME280;18191;51.288;12.390;2023-04-27T01:11:13;48929.28;;;-144.47;81.09
31585;BME280;18191;51.288;12.390;2023-04-27T01:16:05;48913.34;;;-144.47;82.50
31585;BME280;18191;51.288;12.390;2023-04-27T01:20:55;48933.25;;;-144.47;81.81
31585;BME280;18191;51.288;12.390;2023-04-27T01:25:45;48925.28;;;-144.47;81.62
31585;BME280;18191;51.288;12.390;2023-04-27T01:30:35;48945.19;;;-144.47;81.51
31585;BME280;18191;51.288;12.390;2023-04-27T01:35:26;48917.34;;;-144.47;82.00
31585;BME280;18191;51.288;12.390;2023-04-27T01:40:16;48945.19;;;-144.47;81.78
31585;BME280;18191;51.288;12.390;2023-04-27T01:45:06;48953.13;;;-144.47;82.28
31585;BME280;18191;51.288;12.390;2023-04-27T01:49:56;48905.41;;;-144.47;81.88
31585;BME280;18191;51.288;12.390;2023-04-27T01:54:47;48943.19;;;-144.47;81.75
31585;BME280;18191;51.288;12.390;2023-04-27T01:59:37;48925.28;;;-144.47;82.12
31585;BME280;18191;51.288;12.390;2023-04-27T02:04:28;48899.44;;;-144.47;81.31
31585;BME280;18191;51.288;12.390;2023-04-27T02:09:18;48937.22;;;-144.47;81.34
31585;BME280;18191;51.288;12.390;2023-04-27T02:14:08;48977.00;;;-144.47;82.08
31585;BME280;18191;51.288;12.390;2023-04-27T02:18:59;48961.09;;;-144.47;82.20
31585;BME280;18191;51.288;12.390;2023-04-27T02:23:49;48901.41;;;-144.47;81.97
31585;BME280;18191;51.288;12.390;2023-04-27T02:28:39;48957.13;;;-144.47;81.58
31585;BME280;18191;51.288;12.390;2023-04-27T02:33:29;48921.31;;;-144.47;81.69
31585;BME280;18191;51.288;12.390;2023-04-27T02:38:20;48929.28;;;-144.47;81.38
31585;BME280;18191;51.288;12.390;2023-04-27T02:43:10;48929.28;;;-144.47;81.64
31585;BME280;18191;51.288;12.390;2023-04-27T02:48:01;48923.31;;;-144.47;81.60
31585;BME280;18191;51.288;12.390;2023-04-27T02:52:51;48909.38;;;-144.47;81.47
31585;BME280;18191;51.288;12.390;2023-04-27T02:57:41;48957.13;;;-144.47;81.97
31585;BME280;18191;51.288;12.390;2023-04-27T03:02:31;48913.34;;;-144.47;82.22
31585;BME280;18191;51.288;12.390;2023-04-27T03:07:22;48921.31;;;-144.47;82.71
31585;BME280;18191;51.288;12.390;2023-04-27T03:12:12;48963.09;;;-144.47;82.27
31585;BME280;18191;51.288;12.390;2023-04-27T03:17:02;48927.28;;;-144.47;82.40
31585;BME280;18191;51.288;12.390;2023-04-27T03:21:52;48959.09;;;-144.47;82.13
31585;BME280;18191;51.288;12.390;2023-04-27T03:26:42;48919.31;;;-144.47;82.61
31585;BME280;18191;51.288;12.390;2023-04-27T03:31:33;48959.09;;;-144.47;81.98
31585;BME280;18191;51.288;12.390;2023-04-27T03:36:23;48981.00;;;-144.47;82.27
31585;BME280;18191;51.288;12.390;2023-04-27T03:41:13;48941.19;;;-144.47;82.12
31585;BME280;18191;51.288;12.390;2023-04-27T03:46:03;48917.34;;;-144.47;81.59
31585;BME280;18191;51.288;12.390;2023-04-27T03:50:53;48937.22;;;-144.47;82.17
31585;BME280;18191;51.288;12.390;2023-04-27T03:55:44;48945.19;;;-144.47;82.11
31585;BME280;18191;51.288;12.390;2023-04-27T04:00:34;48941.19;;;-144.47;82.41
31585;BME280;18191;51.288;12.390;2023-04-27T04:05:25;48925.28;;;-144.47;81.39
31585;BME280;18191;51.288;12.390;2023-04-27T04:10:15;48984.97;;;-144.47;80.74
31585;BME280;18191;51.288;12.390;2023-04-27T04:15:05;48937.22;;;-144.47;80.33
31585;BME280;18191;51.288;12.390;2023-04-27T04:19:56;48949.16;;;-144.47;80.75
31585;BME280;18191;51.288;12.390;2023-04-27T04:24:46;48917.34;;;-144.47;81.37
31585;BME280;18191;51.288;12.390;2023-04-27T04:29:37;48925.28;;;-144.47;83.12
31585;BME280;18191;51.288;12.390;2023-04-27T04:34:28;48895.44;;;-144.47;82.54
31585;BME280;18191;51.288;12.390;2023-04-27T04:39:18;48925.28;;;-144.47;82.40
31585;BME280;18191;51.288;12.390;2023-04-27T04:44:11;48925.28;;;-144.47;81.34
31585;BME280;18191;51.288;12.390;2023-04-27T04:49:02;48953.13;;;-144.47;80.16
31585;BME280;18191;51.288;12.390;2023-04-27T04:53:52;48901.41;;;-144.47;79.30
31585;BME280;18191;51.288;12.390;2023-04-27T04:58:42;48949.16;;;-144.47;78.94
31585;BME280;18191;51.288;12.390;2023-04-27T05:03:33;48905.41;;;-144.47;78.87
31585;BME280;18191;51.288;12.390;2023-04-27T05:08:23;48939.22;;;-144.47;77.31
31585;BME280;18191;51.288;12.390;2023-04-27T05:13:13;48957.13;;;-144.47;76.39
31585;BME280;18191;51.288;12.390;2023-04-27T05:18:04;48957.13;;;-144.47;76.05
31585;BME280;18191;51.288;12.390;2023-04-27T05:22:54;48931.25;;;-144.47;76.40
31585;BME280;18191;51.288;12.390;2023-04-27T05:27:44;48937.22;;;-144.47;77.10
31585;BME280;18191;51.288;12.390;2023-04-27T05:32:35;48945.19;;;-144.47;75.92
31585;BME280;18191;51.288;12.390;2023-04-27T05:37:26;48945.19;;;-144.47;75.22
31585;BME280;18191;51.288;12.390;2023-04-27T05:42:16;48951.16;;;-144.47;74.01
31585;BME280;18191;51.288;12.390;2023-04-27T05:47:06;48885.50;;;-144.47;70.33
31585;BME280;18191;51.288;12.390;2023-04-27T05:51:56;48921.31;;;-144.47;67.89
31585;BME280;18191;51.288;12.390;2023-04-27T05:56:48;48905.41;;;-144.47;68.18
31585;BME280;18191;51.288;12.390;2023-04-27T06:01:39;48925.28;;;-144.47;70.94
31585;BME280;18191;51.288;12.390;2023-04-27T06:06:32;48917.34;;;-144.47;69.64
31585;BME280;18191;51.288;12.390;2023-04-27T06:11:23;48923.31;;;-144.47;67.23
31585;BME280;18191;51.288;12.390;2023-04-27T06:16:13;48941.19;;;-144.47;65.65
31585;BME280;18191;51.288;12.390;2023-04-27T06:21:03;48913.34;;;-144.47;63.97
31585;BME280;18191;51.288;12.390;2023-04-27T06:25:53;48961.09;;;-144.47;62.60
31585;BME280;18191;51.288;12.390;2023-04-27T06:30:44;48903.41;;;-144.47;63.71
31585;BME280;18191;51.288;12.390;2023-04-27T06:35:34;48905.41;;;-144.47;65.98
31585;BME280;18191;51.288;12.390;2023-04-27T06:40:25;48919.31;;;-144.47;64.55
31585;BME280;18191;51.288;12.390;2023-04-27T06:45:15;48901.41;;;-144.47;63.38
31585;BME280;18191;51.288;12.390;2023-04-27T06:50:06;48893.47;;;-144.47;59.13
31585;BME280;18191;51.288;12.390;2023-04-27T06:54:56;48881.53;;;-144.47;59.61
31585;BME280;18191;51.288;12.390;2023-04-27T06:59:46;48899.44;;;-144.47;58.71
31585;BME280;18191;51.288;12.390;2023-04-27T07:04:36;48915.34;;;-144.47;56.44
31585;BME280;18191;51.288;12.390;2023-04-27T07:09:27;48919.31;;;-144.47;54.16
31585;BME280;18191;51.288;12.390;2023-04-27T07:14:17;48897.44;;;-144.47;49.00
31585;BME280;18191;51.288;12.390;2023-04-27T07:19:09;48869.59;;;-144.47;52.60
31585;BME280;18191;51.288;12.390;2023-04-27T07:23:59;48841.75;;;-144.47;50.42
31585;BME280;18191;51.288;12.390;2023-04-27T07:28:50;48837.78;;;-144.47;46.79
31585;BME280;18191;51.288;12.390;2023-04-27T07:33:40;48893.47;;;-144.47;46.20
31585;BME280;18191;51.288;12.390;2023-04-27T07:38:30;48877.56;;;-144.47;46.64
31585;BME280;18191;51.288;12.390;2023-04-27T07:43:21;48889.50;;;-144.47;46.31
31585;BME280;18191;51.288;12.390;2023-04-27T07:48:12;48841.75;;;-144.47;45.73
31585;BME280;18191;51.288;12.390;2023-04-27T07:53:02;48867.59;;;-144.47;42.83
31585;BME280;18191;51.288;12.390;2023-04-27T07:57:53;48859.66;;;-144.47;43.04
31585;BME280;18191;51.288;12.390;2023-04-27T08:02:43;48881.53;;;-144.47;41.58
31585;BME280;18191;51.288;12.390;2023-04-27T08:07:33;48885.50;;;-144.47;42.13
31585;BME280;18191;51.288;12.390;2023-04-27T08:12:23;48883.53;;;-144.47;41.09
31585;BME280;18191;51.288;12.390;2023-04-27T08:17:14;48853.69;;;-144.47;39.21
31585;BME280;18191;51.288;12.390;2023-04-27T08:22:04;48871.59;;;-144.47;39.73
31585;BME280;18191;51.288;12.390;2023-04-27T08:26:54;48825.84;;;-144.47;39.33
31585;BME280;18191;51.288;12.390;2023-04-27T08:31:44;48829.81;;;-144.47;40.55
31585;BME280;18191;51.288;12.390;2023-04-27T08:36:34;48873.56;;;-144.47;38.95
31585;BME280;18191;51.288;12.390;2023-04-27T08:41:24;48883.53;;;-144.47;39.58
31585;BME280;18191;51.288;12.390;2023-04-27T08:46:18;48841.75;;;-144.47;39.20
31585;BME280;18191;51.288;12.390;2023-04-27T08:51:09;48875.56;;;-144.47;39.13
31585;BME280;18191;51.288;12.390;2023-04-27T08:55:59;48865.63;;;-144.47;39.26
31585;BME280;18191;51.288;12.390;2023-04-27T09:00:50;48849.69;;;-144.47;39.48
31585;BME280;18191;51.288;12.390;2023-04-27T09:05:44;48897.44;;;-144.47;38.77
31585;BME280;18191;51.288;12.390;2023-04-27T09:10:48;48869.59;;;-144.47;38.55
31585;BME280;18191;51.288;12.390;2023-04-27T09:15:45;48871.59;;;-144.47;36.43
31585;BME280;18191;51.288;12.390;2023-04-27T09:20:41;48841.75;;;-144.47;35.69
31585;BME280;18191;51.288;12.390;2023-04-27T09:25:31;48865.63;;;-144.47;34.56
31585;BME280;18191;51.288;12.390;2023-04-27T09:30:22;48865.63;;;-144.47;34.98
31585;BME280;18191;51.288;12.390;2023-04-27T09:35:19;48917.34;;;-144.47;34.75
31585;BME280;18191;51.288;12.390;2023-04-27T09:40:10;48897.44;;;-144.47;33.84
31585;BME280;18191;51.288;12.390;2023-04-27T09:45:00;48901.41;;;-144.47;33.30
31585;BME280;18191;51.288;12.390;2023-04-27T09:49:53;48881.53;;;-144.47;32.86
31585;BME280;18191;51.288;12.390;2023-04-27T09:54:43;48863.63;;;-144.47;32.34
31585;BME280;18191;51.288;12.390;2023-04-27T09:59:35;48897.44;;;-144.47;33.17
31585;BME280;18191;51.288;12.390;2023-04-27T10:04:44;48813.91;;;-144.47;33.48
31585;BME280;18191;51.288;12.390;2023-04-27T10:09:43;48877.56;;;-144.47;32.86
31585;BME280;18191;51.288;12.390;2023-04-27T10:14:33;48829.81;;;-144.47;32.54
31585;BME280;18191;51.288;12.390;2023-04-27T10:19:24;48855.66;;;-144.47;32.74
31585;BME280;18191;51.288;12.390;2023-04-27T10:24:14;48845.72;;;-144.47;32.73
31585;BME280;18191;51.288;12.390;2023-04-27T10:29:05;48833.78;;;-144.47;32.99
31585;BME280;18191;51.288;12.390;2023-04-27T10:34:09;48873.56;;;-144.47;30.90
31585;BME280;18191;51.288;12.390;2023-04-27T10:39:00;48873.56;;;-144.47;31.88
31585;BME280;18191;51.288;12.390;2023-04-27T10:43:50;48877.56;;;-144.47;32.51
31585;BME280;18191;51.288;12.390;2023-04-27T10:48:41;48901.41;;;-144.47;32.48
31585;BME280;18191;51.288;12.390;2023-04-27T10:53:35;48829.81;;;-144.47;32.88
31585;BME280;18191;51.288;12.390;2023-04-27T10:58:26;48881.53;;;-144.47;35.22
31585;BME280;18191;51.288;12.390;2023-04-27T11:03:22;48909.38;;;-144.47;33.88
31585;BME280;18191;51.288;12.390;2023-04-27T11:08:14;48849.69;;;-144.47;33.85
31585;BME280;18191;51.288;12.390;2023-04-27T11:13:05;48865.63;;;-144.47;33.90
31585;BME280;18191;51.288;12.390;2023-04-27T11:18:03;48873.56;;;-144.47;33.10
31585;BME280;18191;51.288;12.390;2023-04-27T11:22:53;48893.47;;;-144.47;34.03
31585;BME280;18191;51.288;12.390;2023-04-27T11:27:43;48893.47;;;-144.47;34.60
31585;BME280;18191;51.288;12.390;2023-04-27T11:32:34;48877.56;;;-144.47;34.08
31585;BME280;18191;51.288;12.390;2023-04-27T11:37:26;48857.66;;;-144.47;33.91
31585;BME280;18191;51.288;12.390;2023-04-27T11:47:07;48845.72;;;-144.47;31.07
31585;BME280;18191;51.288;12.390;2023-04-27T11:51:57;48871.59;;;-144.47;31.58
31585;BME280;18191;51.288;12.390;2023-04-27T11:56:48;48855.66;;;-144.47;31.37
31585;BME280;18191;51.288;12.390;2023-04-27T12:01:38;48873.56;;;-144.47;30.44
31585;BME280;18191;51.288;12.390;2023-04-27T12:06:28;48889.50;;;-144.47;31.78
31585;BME280;18191;51.288;12.390;2023-04-27T12:11:18;48873.56;;;-144.47;31.37
31585;BME280;18191;51.288;12.390;2023-04-27T12:16:08;48873.56;;;-144.47;30.22
31585;BME280;18191;51.288;12.390;2023-04-27T12:20:59;48869.59;;;-144.47;29.66
31585;BME280;18191;51.288;12.390;2023-04-27T12:25:49;48865.63;;;-144.47;30.31
31585;BME280;18191;51.288;12.390;2023-04-27T12:30:39;48883.53;;;-144.47;29.39
31585;BME280;18191;51.288;12.390;2023-04-27T12:35:29;48881.53;;;-144.47;30.01
31585;BME280;18191;51.288;12.390;2023-04-27T12:40:20;48873.56;;;-144.47;29.26
31585;BME280;18191;51.288;12.390;2023-04-27T12:45:12;48873.56;;;-144.47;30.82
31585;BME280;18191;51.288;12.390;2023-04-27T12:50:02;48925.28;;;-144.47;30.91
31585;BME280;18191;51.288;12.390;2023-04-27T12:54:52;48865.63;;;-144.47;31.45
31585;BME280;18191;51.288;12.390;2023-04-27T12:59:51;48881.53;;;-144.47;30.78
31585;BME280;18191;51.288;12.390;2023-04-27T13:04:41;48893.47;;;-144.47;31.30
31585;BME280;18191;51.288;12.390;2023-04-27T13:09:31;48879.53;;;-144.47;31.29
31585;BME280;18191;51.288;12.390;2023-04-27T13:14:21;48869.59;;;-144.47;31.28
31585;BME280;18191;51.288;12.390;2023-04-27T13:19:13;48869.59;;;-144.47;29.79
31585;BME280;18191;51.288;12.390;2023-04-27T13:24:03;48907.38;;;-144.47;29.79
31585;BME280;18191;51.288;12.390;2023-04-27T13:28:54;48869.59;;;-144.47;30.22
31585;BME280;18191;51.288;12.390;2023-04-27T13:33:44;48857.66;;;-144.47;31.44
31585;BME280;18191;51.288;12.390;2023-04-27T13:38:34;48885.50;;;-144.47;32.35
31585;BME280;18191;51.288;12.390;2023-04-27T13:43:25;48879.53;;;-144.47;31.35
31585;BME280;18191;51.288;12.390;2023-04-27T13:48:16;48857.66;;;-144.47;30.29
31585;BME280;18191;51.288;12.390;2023-04-27T13:53:06;48881.53;;;-144.47;29.16
31585;BME280;18191;51.288;12.390;2023-04-27T13:57:57;48849.69;;;-144.47;29.81
31585;BME280;18191;51.288;12.390;2023-04-27T14:02:47;48853.69;;;-144.47;30.63
31585;BME280;18191;51.288;12.390;2023-04-27T14:07:38;48809.91;;;-144.47;29.88
31585;BME280;18191;51.288;12.390;2023-04-27T14:12:29;48837.78;;;-144.47;28.92
31585;BME280;18191;51.288;12.390;2023-04-27T14:17:19;48877.56;;;-144.47;29.32
31585;BME280;18191;51.288;12.390;2023-04-27T14:22:09;48881.53;;;-144.47;30.34
31585;BME280;18191;51.288;12.390;2023-04-27T14:27:00;48865.63;;;-144.47;29.18
31585;BME280;18191;51.288;12.390;2023-04-27T14:31:50;48861.63;;;-144.47;31.55
31585;BME280;18191;51.288;12.390;2023-04-27T14:36:40;48883.53;;;-144.47;29.51
31585;BME280;18191;51.288;12.390;2023-04-27T14:41:30;48889.50;;;-144.47;29.56
31585;BME280;18191;51.288;12.390;2023-04-27T14:46:20;48861.63;;;-144.47;29.87
31585;BME280;18191;51.288;12.390;2023-04-27T14:51:14;48845.72;;;-144.47;30.81
31585;BME280;18191;51.288;12.390;2023-04-27T14:56:05;48819.88;;;-144.47;30.66
31585;BME280;18191;51.288;12.390;2023-04-27T15:00:55;48873.56;;;-144.47;30.20
31585;BME280;18191;51.288;12.390;2023-04-27T15:05:45;48855.66;;;-144.47;30.50
31585;BME280;18191;51.288;12.390;2023-04-27T15:10:35;48859.66;;;-144.47;30.33
31585;BME280;18191;51.288;12.390;2023-04-27T15:15:26;48869.59;;;-144.47;30.23
31585;BME280;18191;51.288;12.390;2023-04-27T15:20:16;48849.69;;;-144.47;30.58
31585;BME280;18191;51.288;12.390;2023-04-27T15:25:06;48889.50;;;-144.47;29.98
31585;BME280;18191;51.288;12.390;2023-04-27T15:29:57;48905.41;;;-144.47;30.52
31585;BME280;18191;51.288;12.390;2023-04-27T15:34:48;48847.72;;;-144.47;29.88
31585;BME280;18191;51.288;12.390;2023-04-27T15:39:38;48865.63;;;-144.47;29.88
31585;BME280;18191;51.288;12.390;2023-04-27T15:44:29;48849.69;;;-144.47;30.37
31585;BME280;18191;51.288;12.390;2023-04-27T15:49:19;48885.50;;;-144.47;30.38
31585;BME280;18191;51.288;12.390;2023-04-27T15:54:09;48859.66;;;-144.47;30.97
31585;BME280;18191;51.288;12.390;2023-04-27T15:59:00;48841.75;;;-144.47;30.70
31585;BME280;18191;51.288;12.390;2023-04-27T16:03:50;48829.81;;;-144.47;31.48
31585;BME280;18191;51.288;12.390;2023-04-27T16:08:40;48849.69;;;-144.47;32.10
31585;BME280;18191;51.288;12.390;2023-04-27T16:13:31;48837.78;;;-144.47;31.71
31585;BME280;18191;51.288;12.390;2023-04-27T16:18:21;48869.59;;;-144.47;31.01
31585;BME280;18191;51.288;12.390;2023-04-27T16:23:12;48853.69;;;-144.47;31.76
31585;BME280;18191;51.288;12.390;2023-04-27T16:28:02;48861.63;;;-144.47;32.28
31585;BME280;18191;51.288;12.390;2023-04-27T16:32:52;48873.56;;;-144.47;32.05
31585;BME280;18191;51.288;12.390;2023-04-27T16:37:42;48857.66;;;-144.47;31.64
31585;BME280;18191;51.288;12.390;2023-04-27T16:42:33;48865.63;;;-144.47;31.68
31585;BME280;18191;51.288;12.390;2023-04-27T16:47:23;48841.75;;;-144.47;32.41
31585;BME280;18191;51.288;12.390;2023-04-27T16:52:13;48893.47;;;-144.47;33.74
31585;BME280;18191;51.288;12.390;2023-04-27T16:57:03;48853.69;;;-144.47;33.20
31585;BME280;18191;51.288;12.390;2023-04-27T17:01:53;48877.56;;;-144.47;33.89
31585;BME280;18191;51.288;12.390;2023-04-27T17:06:44;48881.53;;;-144.47;34.68
31585;BME280;18191;51.288;12.390;2023-04-27T17:11:36;48849.69;;;-144.47;33.07
31585;BME280;18191;51.288;12.390;2023-04-27T17:16:27;48857.66;;;-144.47;35.03
31585;BME280;18191;51.288;12.390;2023-04-27T17:21:17;48861.63;;;-144.47;35.90
31585;BME280;18191;51.288;12.390;2023-04-27T17:26:08;48873.56;;;-144.47;36.18
31585;BME280;18191;51.288;12.390;2023-04-27T17:30:59;48885.50;;;-144.47;36.06
31585;BME280;18191;51.288;12.390;2023-04-27T17:35:49;48865.63;;;-144.47;36.50
31585;BME280;18191;51.288;12.390;2023-04-27T17:40:40;48901.41;;;-144.47;37.95
31585;BME280;18191;51.288;12.390;2023-04-27T17:45:30;48877.56;;;-144.47;38.23
31585;BME280;18191;51.288;12.390;2023-04-27T17:50:22;48899.44;;;-144.47;39.02
31585;BME280;18191;51.288;12.390;2023-04-27T17:55:13;48857.66;;;-144.47;39.31
31585;BME280;18191;51.288;12.390;2023-04-27T18:00:03;48861.63;;;-144.47;37.47
31585;BME280;18191;51.288;12.390;2023-04-27T18:04:53;48857.66;;;-144.47;40.29
31585;BME280;18191;51.288;12.390;2023-04-27T18:09:44;48889.50;;;-144.47;39.91
31585;BME280;18191;51.288;12.390;2023-04-27T18:14:34;48871.59;;;-144.47;39.76
31585;BME280;18191;51.288;12.390;2023-04-27T18:19:24;48915.34;;;-144.47;42.71
31585;BME280;18191;51.288;12.390;2023-04-27T18:24:16;48833.78;;;-144.47;40.77
31585;BME280;18191;51.288;12.390;2023-04-27T18:29:06;48865.63;;;-144.47;44.24
31585;BME280;18191;51.288;12.390;2023-04-27T18:33:57;48893.47;;;-144.47;45.65
31585;BME280;18191;51.288;12.390;2023-04-27T18:38:48;48905.41;;;-144.47;45.88
31585;BME280;18191;51.288;12.390;2023-04-27T18:43:38;48869.59;;;-144.47;44.73
31585;BME280;18191;51.288;12.390;2023-04-27T18:48:31;48893.47;;;-144.47;41.89
31585;BME280;18191;51.288;12.390;2023-04-27T18:53:21;48881.53;;;-144.47;42.08
31585;BME280;18191;51.288;12.390;2023-04-27T18:58:11;48871.59;;;-144.47;42.83
31585;BME280;18191;51.288;12.390;2023-04-27T19:03:02;48877.56;;;-144.47;45.95
31585;BME280;18191;51.288;12.390;2023-04-27T19:07:52;48909.38;;;-144.47;46.32
31585;BME280;18191;51.288;12.390;2023-04-27T19:12:42;48921.31;;;-144.47;46.33
31585;BME280;18191;51.288;12.390;2023-04-27T19:17:32;48907.38;;;-144.47;48.87
31585;BME280;18191;51.288;12.390;2023-04-27T19:22:23;48901.41;;;-144.47;50.48
31585;BME280;18191;51.288;12.390;2023-04-27T19:27:13;48919.31;;;-144.47;50.18
31585;BME280;18191;51.288;12.390;2023-04-27T19:32:04;48901.41;;;-144.47;51.13
31585;BME280;18191;51.288;12.390;2023-04-27T19:36:54;48897.44;;;-144.47;51.27
31585;BME280;18191;51.288;12.390;2023-04-27T19:41:44;48905.41;;;-144.47;48.55
31585;BME280;18191;51.288;12.390;2023-04-27T19:46:35;48919.31;;;-144.47;49.27
31585;BME280;18191;51.288;12.390;2023-04-27T19:51:25;48913.34;;;-144.47;51.35
31585;BME280;18191;51.288;12.390;2023-04-27T19:56:15;48909.38;;;-144.47;51.71
31585;BME280;18191;51.288;12.390;2023-04-27T20:01:05;48905.41;;;-144.47;53.23
31585;BME280;18191;51.288;12.390;2023-04-27T20:05:56;48933.25;;;-144.47;50.21
31585;BME280;18191;51.288;12.390;2023-04-27T20:10:46;48921.31;;;-144.47;51.48
31585;BME280;18191;51.288;12.390;2023-04-27T20:15:36;48901.41;;;-144.47;49.34
31585;BME280;18191;51.288;12.390;2023-04-27T20:20:26;48937.22;;;-144.47;49.21
31585;BME280;18191;51.288;12.390;2023-04-27T20:25:17;48929.28;;;-144.47;49.43
31585;BME280;18191;51.288;12.390;2023-04-27T20:30:08;48881.53;;;-144.47;50.86
31585;BME280;18191;51.288;12.390;2023-04-27T20:34:58;48871.59;;;-144.47;50.73
31585;BME280;18191;51.288;12.390;2023-04-27T20:39:49;48913.34;;;-144.47;52.02
31585;BME280;18191;51.288;12.390;2023-04-27T20:44:40;48897.44;;;-144.47;50.34
31585;BME280;18191;51.288;12.390;2023-04-27T20:49:30;48929.28;;;-144.47;50.53
31585;BME280;18191;51.288;12.390;2023-04-27T20:54:21;48883.53;;;-144.47;51.15
31585;BME280;18191;51.288;12.390;2023-04-27T20:59:11;48891.47;;;-144.47;53.26
31585;BME280;18191;51.288;12.390;2023-04-27T21:04:01;48893.47;;;-144.47;53.69
31585;BME280;18191;51.288;12.390;2023-04-27T21:08:51;48899.44;;;-144.47;53.22
31585;BME280;18191;51.288;12.390;2023-04-27T21:13:41;48933.25;;;-144.47;52.26
31585;BME280;18191;51.288;12.390;2023-04-27T21:18:31;48907.38;;;-144.47;52.82
31585;BME280;18191;51.288;12.390;2023-04-27T21:23:22;48907.38;;;-144.47;51.91
31585;BME280;18191;51.288;12.390;2023-04-27T21:28:12;48901.41;;;-144.47;52.95
31585;BME280;18191;51.288;12.390;2023-04-27T21:33:02;48935.25;;;-144.47;52.73
31585;BME280;18191;51.288;12.390;2023-04-27T21:37:53;48931.25;;;-144.47;51.47
31585;BME280;18191;51.288;12.390;2023-04-27T21:42:43;48913.34;;;-144.47;53.82
31585;BME280;18191;51.288;12.390;2023-04-27T21:47:33;48893.47;;;-144.47;54.19
31585;BME280;18191;51.288;12.390;2023-04-27T21:52:23;48905.41;;;-144.47;54.48
31585;BME280;18191;51.288;12.390;2023-04-27T21:57:14;48913.34;;;-144.47;54.63
31585;BME280;18191;51.288;12.390;2023-04-27T22:02:04;48909.38;;;-144.47;54.10
31585;BME280;18191;51.288;12.390;2023-04-27T22:06:55;48903.41;;;-144.47;55.13
31585;BME280;18191;51.288;12.390;2023-04-27T22:11:45;48869.59;;;-144.47;54.12
31585;BME280;18191;51.288;12.390;2023-04-27T22:16:35;48885.50;;;-144.47;55.63
31585;BME280;18191;51.288;12.390;2023-04-27T22:21:26;48905.41;;;-144.47;56.61
31585;BME280;18191;51.288;12.390;2023-04-27T22:26:17;48915.34;;;-144.47;56.75
31585;BME280;18191;51.288;12.390;2023-04-27T22:31:07;48917.34;;;-144.47;57.38
31585;BME280;18191;51.288;12.390;2023-04-27T22:35:58;48887.50;;;-144.47;57.92
31585;BME280;18191;51.288;12.390;2023-04-27T22:40:48;48929.28;;;-144.47;57.61
31585;BME280;18191;51.288;12.390;2023-04-27T22:45:38;48889.50;;;-144.47;58.29
31585;BME280;18191;51.288;12.390;2023-04-27T22:50:28;48937.22;;;-144.47;59.08
31585;BME280;18191;51.288;12.390;2023-04-27T22:55:19;48957.13;;;-144.47;59.24
31585;BME280;18191;51.288;12.390;2023-04-27T23:00:09;48905.41;;;-144.47;58.97
31585;BME280;18191;51.288;12.390;2023-04-27T23:05:00;48889.50;;;-144.47;59.71
31585;BME280;18191;51.288;12.390;2023-04-27T23:09:50;48903.41;;;-144.47;60.00
31585;BME280;18191;51.288;12.390;2023-04-27T23:14:40;48905.41;;;-144.47;60.09
31585;BME280;18191;51.288;12.390;2023-04-27T23:19:31;48865.63;;;-144.47;58.62
31585;BME280;18191;51.288;12.390;2023-04-27T23:24:21;48901.41;;;-144.47;58.97
31585;BME280;18191;51.288;12.390;2023-04-27T23:29:11;48901.41;;;-144.47;57.14
31585;BME280;18191;51.288;12.390;2023-04-27T23:34:02;48921.31;;;-144.47;55.89
31585;BME280;18191;51.288;12.390;2023-04-27T23:38:52;48917.34;;;-144.47;56.32
31585;BME280;18191;51.288;12.390;2023-04-27T23:43:42;48921.31;;;-144.47;55.95
31585;BME280;18191;51.288;12.390;2023-04-27T23:48:33;48915.34;;;-144.47;56.06
31585;BME280;18191;51.288;12.390;2023-04-27T23:53:23;48869.59;;;-144.47;57.21
31585;BME280;18191;51.288;12.390;2023-04-27T23:58:14;48941.19;;;-144.47;58.44
